sensor_id;sensor_type;location;lat;lon;timestamp;P1;durP1;ratioP1;P2;durP2;ratioP2
7583;SDS011;3833;41.764;26.204;2023-07-28T00:01:58;3.00;;;2.80;;
7583;SDS011;3833;41.764;26.204;2023-07-28T00:04:24;2.87;;;2.67;;
7583;SDS011;3833;41.764;26.204;2023-07-28T00:06:51;3.07;;;2.80;;
7583;SDS011;3833;41.764;26.204;2023-07-28T00:09:18;4.60;;;3.00;;
7583;SDS011;3833;41.764;26.204;2023-07-28T00:11:45;2.70;;;2.50;;
7583;SDS011;3833;41.764;26.204;2023-07-28T00:14:12;3.10;;;2.90;;
7583;SDS011;3833;41.764;26.204;2023-07-28T00:16:39;3.00;;;2.80;;
7583;SDS011;3833;41.764;26.204;2023-07-28T00:19:07;6.37;;;3.13;;
7583;SDS011;3833;41.764;26.204;2023-07-28T00:21:34;3.30;;;3.00;;
7583;SDS011;3833;41.764;26.204;2023-07-28T00:24:01;4.07;;;3.03;;
7583;SDS011;3833;41.764;26.204;2023-07-28T00:26:28;3.13;;;2.90;;
7583;SDS011;3833;41.764;26.204;2023-07-28T00:28:55;3.37;;;3.10;;
7583;SDS011;3833;41.764;26.204;2023-07-28T00:31:23;3.27;;;3.03;;
7583;SDS011;3833;41.764;26.204;2023-07-28T00:33:50;3.30;;;3.00;;
7583;SDS011;3833;41.764;26.204;2023-07-28T00:36:18;5.33;;;3.10;;
7583;SDS011;3833;41.764;26.204;2023-07-28T00:38:45;3.47;;;3.20;;
7583;SDS011;3833;41.764;26.204;2023-07-28T00:41:12;3.80;;;3.50;;
7583;SDS011;3833;41.764;26.204;2023-07-28T00:43:38;3.23;;;2.93;;
7583;SDS011;3833;41.764;26.204;2023-07-28T00:46:04;3.60;;;3.30;;
7583;SDS011;3833;41.764;26.204;2023-07-28T00:48:31;5.20;;;3.03;;
7583;SDS011;3833;41.764;26.204;2023-07-28T00:50:58;3.10;;;2.80;;
7583;SDS011;3833;41.764;26.204;2023-07-28T00:53:26;3.10;;;2.80;;
7583;SDS011;3833;41.764;26.204;2023-07-28T00:55:53;3.50;;;2.87;;
7583;SDS011;3833;41.764;26.204;2023-07-28T00:58:20;3.47;;;3.17;;
7583;SDS011;3833;41.764;26.204;2023-07-28T01:00:47;4.87;;;3.10;;
7583;SDS011;3833;41.764;26.204;2023-07-28T01:03:14;3.27;;;3.07;;
7583;SDS011;3833;41.764;26.204;2023-07-28T01:05:43;4.00;;;2.93;;
7583;SDS011;3833;41.764;26.204;2023-07-28T01:08:16;3.63;;;2.67;;
7583;SDS011;3833;41.764;26.204;2023-07-28T01:10:46;3.57;;;3.27;;
7583;SDS011;3833;41.764;26.204;2023-07-28T01:13:13;3.40;;;3.10;;
7583;SDS011;3833;41.764;26.204;2023-07-28T01:15:40;4.77;;;3.43;;
7583;SDS011;3833;41.764;26.204;2023-07-28T01:18:06;3.50;;;3.20;;
7583;SDS011;3833;41.764;26.204;2023-07-28T01:20:33;3.90;;;3.60;;
7583;SDS011;3833;41.764;26.204;2023-07-28T01:23:13;4.03;;;3.63;;
7583;SDS011;3833;41.764;26.204;2023-07-28T01:25:50;3.40;;;2.97;;
7583;SDS011;3833;41.764;26.204;2023-07-28T01:28:23;3.20;;;3.00;;
7583;SDS011;3833;41.764;26.204;2023-07-28T01:30:50;3.53;;;3.23;;
7583;SDS011;3833;41.764;26.204;2023-07-28T01:33:17;3.60;;;3.30;;
7583;SDS011;3833;41.764;26.204;2023-07-28T01:35:44;5.73;;;3.73;;
7583;SDS011;3833;41.764;26.204;2023-07-28T01:38:11;4.30;;;3.90;;
7583;SDS011;3833;41.764;26.204;2023-07-28T01:40:38;4.77;;;4.00;;
7583;SDS011;3833;41.764;26.204;2023-07-28T01:43:05;5.23;;;3.67;;
7583;SDS011;3833;41.764;26.204;2023-07-28T01:45:33;5.23;;;4.17;;
7583;SDS011;3833;41.764;26.204;2023-07-28T01:48:00;4.63;;;4.23;;
7583;SDS011;3833;41.764;26.204;2023-07-28T01:50:27;4.43;;;4.03;;
7583;SDS011;3833;41.764;26.204;2023-07-28T01:52:53;4.50;;;3.90;;
7583;SDS011;3833;41.764;26.204;2023-07-28T01:55:21;4.50;;;4.10;;
7583;SDS011;3833;41.764;26.204;2023-07-28T01:57:54;4.53;;;4.13;;
7583;SDS011;3833;41.764;26.204;2023-07-28T02:00:21;8.60;;;4.40;;
7583;SDS011;3833;41.764;26.204;2023-07-28T02:02:50;4.73;;;4.33;;
7583;SDS011;3833;41.764;26.204;2023-07-28T02:05:17;4.73;;;4.33;;
7583;SDS011;3833;41.764;26.204;2023-07-28T02:07:44;4.63;;;4.23;;
7583;SDS011;3833;41.764;26.204;2023-07-28T02:10:11;5.10;;;4.50;;
7583;SDS011;3833;41.764;26.204;2023-07-28T02:12:38;4.93;;;4.10;;
7583;SDS011;3833;41.764;26.204;2023-07-28T02:15:05;4.80;;;4.40;;
7583;SDS011;3833;41.764;26.204;2023-07-28T02:17:33;6.23;;;4.77;;
7583;SDS011;3833;41.764;26.204;2023-07-28T02:20:01;4.70;;;4.30;;
7583;SDS011;3833;41.764;26.204;2023-07-28T02:22:28;4.90;;;4.40;;
7583;SDS011;3833;41.764;26.204;2023-07-28T02:24:55;6.20;;;4.80;;
7583;SDS011;3833;41.764;26.204;2023-07-28T02:27:25;6.33;;;4.90;;
7583;SDS011;3833;41.764;26.204;2023-07-28T02:29:52;5.37;;;4.40;;
7583;SDS011;3833;41.764;26.204;2023-07-28T02:32:19;5.40;;;4.90;;
7583;SDS011;3833;41.764;26.204;2023-07-28T02:34:46;4.97;;;4.33;;
7583;SDS011;3833;41.764;26.204;2023-07-28T02:37:14;5.00;;;4.60;;
7583;SDS011;3833;41.764;26.204;2023-07-28T02:39:41;4.83;;;4.47;;
7583;SDS011;3833;41.764;26.204;2023-07-28T02:42:08;5.53;;;4.47;;
7583;SDS011;3833;41.764;26.204;2023-07-28T02:44:34;4.60;;;4.20;;
7583;SDS011;3833;41.764;26.204;2023-07-28T02:47:01;4.70;;;4.30;;
7583;SDS011;3833;41.764;26.204;2023-07-28T02:49:28;5.13;;;4.40;;
7583;SDS011;3833;41.764;26.204;2023-07-28T02:51:55;4.80;;;4.30;;
7583;SDS011;3833;41.764;26.204;2023-07-28T02:54:23;5.13;;;4.73;;
7583;SDS011;3833;41.764;26.204;2023-07-28T02:56:50;4.73;;;4.40;;
7583;SDS011;3833;41.764;26.204;2023-07-28T02:59:17;4.90;;;4.50;;
7583;SDS011;3833;41.764;26.204;2023-07-28T03:01:44;5.77;;;5.23;;
7583;SDS011;3833;41.764;26.204;2023-07-28T03:04:10;5.30;;;4.80;;
7583;SDS011;3833;41.764;26.204;2023-07-28T03:06:37;5.20;;;4.73;;
7583;SDS011;3833;41.764;26.204;2023-07-28T03:09:04;5.63;;;5.10;;
7583;SDS011;3833;41.764;26.204;2023-07-28T03:11:33;4.87;;;4.47;;
7583;SDS011;3833;41.764;26.204;2023-07-28T03:13:59;5.13;;;4.73;;
7583;SDS011;3833;41.764;26.204;2023-07-28T03:16:26;5.23;;;4.77;;
7583;SDS011;3833;41.764;26.204;2023-07-28T03:18:53;5.00;;;4.60;;
7583;SDS011;3833;41.764;26.204;2023-07-28T03:21:20;6.00;;;5.00;;
7583;SDS011;3833;41.764;26.204;2023-07-28T03:23:47;4.97;;;4.57;;
7583;SDS011;3833;41.764;26.204;2023-07-28T03:26:13;5.53;;;4.87;;
7583;SDS011;3833;41.764;26.204;2023-07-28T03:28:42;4.97;;;4.57;;
7583;SDS011;3833;41.764;26.204;2023-07-28T03:31:08;5.33;;;4.83;;
7583;SDS011;3833;41.764;26.204;2023-07-28T03:33:35;5.37;;;4.90;;
7583;SDS011;3833;41.764;26.204;2023-07-28T03:36:02;5.20;;;4.80;;
7583;SDS011;3833;41.764;26.204;2023-07-28T03:38:29;5.33;;;4.83;;
7583;SDS011;3833;41.764;26.204;2023-07-28T03:40:56;6.60;;;5.00;;
7583;SDS011;3833;41.764;26.204;2023-07-28T03:43:23;5.50;;;5.00;;
7583;SDS011;3833;41.764;26.204;2023-07-28T03:45:51;4.43;;;4.13;;
7583;SDS011;3833;41.764;26.204;2023-07-28T03:48:18;5.00;;;4.60;;
7583;SDS011;3833;41.764;26.204;2023-07-28T03:50:44;5.80;;;5.20;;
7583;SDS011;3833;41.764;26.204;2023-07-28T03:53:11;4.87;;;4.57;;
7583;SDS011;3833;41.764;26.204;2023-07-28T03:55:38;4.70;;;4.30;;
7583;SDS011;3833;41.764;26.204;2023-07-28T03:58:05;4.87;;;4.57;;
7583;SDS011;3833;41.764;26.204;2023-07-28T04:00:32;4.50;;;4.20;;
7583;SDS011;3833;41.764;26.204;2023-07-28T04:03:00;4.83;;;4.43;;
7583;SDS011;3833;41.764;26.204;2023-07-28T04:05:27;4.70;;;4.30;;
7583;SDS011;3833;41.764;26.204;2023-07-28T04:07:54;5.13;;;4.73;;
7583;SDS011;3833;41.764;26.204;2023-07-28T04:10:21;5.43;;;4.93;;
7583;SDS011;3833;41.764;26.204;2023-07-28T04:12:48;4.93;;;4.53;;
7583;SDS011;3833;41.764;26.204;2023-07-28T04:15:15;5.00;;;4.33;;
7583;SDS011;3833;41.764;26.204;2023-07-28T04:17:42;5.33;;;4.90;;
7583;SDS011;3833;41.764;26.204;2023-07-28T04:20:10;5.43;;;4.93;;
7583;SDS011;3833;41.764;26.204;2023-07-28T04:22:38;4.63;;;4.30;;
7583;SDS011;3833;41.764;26.204;2023-07-28T04:25:05;4.90;;;4.47;;
7583;SDS011;3833;41.764;26.204;2023-07-28T04:27:32;4.87;;;4.47;;
7583;SDS011;3833;41.764;26.204;2023-07-28T04:29:59;4.80;;;4.40;;
7583;SDS011;3833;41.764;26.204;2023-07-28T04:32:26;5.23;;;4.73;;
7583;SDS011;3833;41.764;26.204;2023-07-28T04:34:53;4.53;;;4.23;;
7583;SDS011;3833;41.764;26.204;2023-07-28T04:37:21;4.90;;;4.50;;
7583;SDS011;3833;41.764;26.204;2023-07-28T04:39:48;4.70;;;4.40;;
7583;SDS011;3833;41.764;26.204;2023-07-28T04:42:15;5.33;;;4.80;;
7583;SDS011;3833;41.764;26.204;2023-07-28T04:44:42;4.87;;;4.30;;
7583;SDS011;3833;41.764;26.204;2023-07-28T04:47:10;4.80;;;4.30;;
7583;SDS011;3833;41.764;26.204;2023-07-28T04:49:37;4.70;;;4.30;;
7583;SDS011;3833;41.764;26.204;2023-07-28T04:52:05;4.67;;;4.27;;
7583;SDS011;3833;41.764;26.204;2023-07-28T04:54:34;5.07;;;4.57;;
7583;SDS011;3833;41.764;26.204;2023-07-28T04:57:01;4.17;;;3.87;;
7583;SDS011;3833;41.764;26.204;2023-07-28T04:59:28;5.10;;;3.87;;
7583;SDS011;3833;41.764;26.204;2023-07-28T05:01:55;4.03;;;3.63;;
7583;SDS011;3833;41.764;26.204;2023-07-28T05:04:22;4.50;;;3.93;;
7583;SDS011;3833;41.764;26.204;2023-07-28T05:06:49;4.37;;;3.97;;
7583;SDS011;3833;41.764;26.204;2023-07-28T05:09:16;4.07;;;3.70;;
7583;SDS011;3833;41.764;26.204;2023-07-28T05:11:44;4.20;;;3.83;;
7583;SDS011;3833;41.764;26.204;2023-07-28T05:14:11;4.17;;;3.60;;
7583;SDS011;3833;41.764;26.204;2023-07-28T05:16:38;3.60;;;3.30;;
7583;SDS011;3833;41.764;26.204;2023-07-28T05:19:05;3.80;;;3.37;;
7583;SDS011;3833;41.764;26.204;2023-07-28T05:21:33;4.13;;;3.30;;
7583;SDS011;3833;41.764;26.204;2023-07-28T05:23:59;5.17;;;3.53;;
7583;SDS011;3833;41.764;26.204;2023-07-28T05:26:26;4.00;;;3.70;;
7583;SDS011;3833;41.764;26.204;2023-07-28T05:28:54;4.73;;;3.73;;
7583;SDS011;3833;41.764;26.204;2023-07-28T05:31:21;4.07;;;3.20;;
7583;SDS011;3833;41.764;26.204;2023-07-28T05:33:48;3.47;;;3.17;;
7583;SDS011;3833;41.764;26.204;2023-07-28T05:36:15;3.77;;;3.47;;
7583;SDS011;3833;41.764;26.204;2023-07-28T05:38:42;3.70;;;3.40;;
7583;SDS011;3833;41.764;26.204;2023-07-28T05:41:09;3.57;;;3.27;;
7583;SDS011;3833;41.764;26.204;2023-07-28T05:43:36;3.47;;;3.27;;
7583;SDS011;3833;41.764;26.204;2023-07-28T05:46:04;3.73;;;3.43;;
7583;SDS011;3833;41.764;26.204;2023-07-28T05:48:31;4.73;;;3.13;;
7583;SDS011;3833;41.764;26.204;2023-07-28T05:50:58;3.20;;;2.93;;
7583;SDS011;3833;41.764;26.204;2023-07-28T05:53:25;3.73;;;3.43;;
7583;SDS011;3833;41.764;26.204;2023-07-28T05:55:52;3.17;;;2.97;;
7583;SDS011;3833;41.764;26.204;2023-07-28T05:58:18;3.47;;;2.87;;
7583;SDS011;3833;41.764;26.204;2023-07-28T06:00:45;5.50;;;3.20;;
7583;SDS011;3833;41.764;26.204;2023-07-28T06:03:14;3.57;;;2.73;;
7583;SDS011;3833;41.764;26.204;2023-07-28T06:05:42;3.60;;;3.30;;
7583;SDS011;3833;41.764;26.204;2023-07-28T06:08:09;5.13;;;3.00;;
7583;SDS011;3833;41.764;26.204;2023-07-28T06:10:36;4.63;;;2.53;;
7583;SDS011;3833;41.764;26.204;2023-07-28T06:13:03;4.57;;;3.27;;
7583;SDS011;3833;41.764;26.204;2023-07-28T06:15:30;3.60;;;2.93;;
7583;SDS011;3833;41.764;26.204;2023-07-28T06:18:00;3.03;;;2.83;;
7583;SDS011;3833;41.764;26.204;2023-07-28T06:20:28;3.00;;;2.80;;
7583;SDS011;3833;41.764;26.204;2023-07-28T06:22:56;3.60;;;2.93;;
7583;SDS011;3833;41.764;26.204;2023-07-28T06:25:22;2.67;;;2.47;;
7583;SDS011;3833;41.764;26.204;2023-07-28T06:27:49;3.20;;;2.90;;
7583;SDS011;3833;41.764;26.204;2023-07-28T06:30:16;2.67;;;2.43;;
7583;SDS011;3833;41.764;26.204;2023-07-28T06:32:43;3.50;;;2.57;;
7583;SDS011;3833;41.764;26.204;2023-07-28T06:35:10;2.90;;;2.70;;
7583;SDS011;3833;41.764;26.204;2023-07-28T06:37:38;3.63;;;2.57;;
7583;SDS011;3833;41.764;26.204;2023-07-28T06:40:05;2.80;;;2.60;;
7583;SDS011;3833;41.764;26.204;2023-07-28T06:42:35;2.30;;;2.20;;
7583;SDS011;3833;41.764;26.204;2023-07-28T06:45:02;3.63;;;2.80;;
7583;SDS011;3833;41.764;26.204;2023-07-28T06:47:30;4.27;;;2.67;;
7583;SDS011;3833;41.764;26.204;2023-07-28T06:49:56;4.67;;;2.60;;
7583;SDS011;3833;41.764;26.204;2023-07-28T06:52:24;2.77;;;2.30;;
7583;SDS011;3833;41.764;26.204;2023-07-28T06:54:52;3.53;;;2.57;;
7583;SDS011;3833;41.764;26.204;2023-07-28T06:57:19;4.40;;;2.50;;
7583;SDS011;3833;41.764;26.204;2023-07-28T06:59:46;2.37;;;2.17;;
7583;SDS011;3833;41.764;26.204;2023-07-28T07:02:13;3.90;;;2.40;;
7583;SDS011;3833;41.764;26.204;2023-07-28T07:04:40;2.80;;;2.50;;
7583;SDS011;3833;41.764;26.204;2023-07-28T07:07:08;2.57;;;2.37;;
7583;SDS011;3833;41.764;26.204;2023-07-28T07:09:35;2.90;;;2.70;;
7583;SDS011;3833;41.764;26.204;2023-07-28T07:12:03;2.80;;;2.60;;
7583;SDS011;3833;41.764;26.204;2023-07-28T07:14:30;3.00;;;2.70;;
7583;SDS011;3833;41.764;26.204;2023-07-28T07:16:58;2.97;;;2.70;;
7583;SDS011;3833;41.764;26.204;2023-07-28T07:19:27;2.63;;;2.47;;
7583;SDS011;3833;41.764;26.204;2023-07-28T07:21:54;2.53;;;2.30;;
7583;SDS011;3833;41.764;26.204;2023-07-28T07:24:20;3.00;;;2.80;;
7583;SDS011;3833;41.764;26.204;2023-07-28T07:26:47;3.27;;;2.57;;
7583;SDS011;3833;41.764;26.204;2023-07-28T07:29:17;5.97;;;3.23;;
7583;SDS011;3833;41.764;26.204;2023-07-28T07:31:44;4.97;;;2.60;;
7583;SDS011;3833;41.764;26.204;2023-07-28T07:34:10;3.20;;;2.90;;
7583;SDS011;3833;41.764;26.204;2023-07-28T07:36:37;3.03;;;2.40;;
7583;SDS011;3833;41.764;26.204;2023-07-28T07:39:05;2.20;;;2.00;;
7583;SDS011;3833;41.764;26.204;2023-07-28T07:41:31;2.10;;;2.00;;
7583;SDS011;3833;41.764;26.204;2023-07-28T07:43:59;3.13;;;2.27;;
7583;SDS011;3833;41.764;26.204;2023-07-28T07:46:27;2.47;;;2.37;;
7583;SDS011;3833;41.764;26.204;2023-07-28T07:48:54;2.07;;;1.97;;
7583;SDS011;3833;41.764;26.204;2023-07-28T07:51:21;2.57;;;2.37;;
7583;SDS011;3833;41.764;26.204;2023-07-28T07:53:47;2.20;;;2.10;;
7583;SDS011;3833;41.764;26.204;2023-07-28T07:56:14;2.53;;;2.23;;
7583;SDS011;3833;41.764;26.204;2023-07-28T07:58:41;2.83;;;2.37;;
7583;SDS011;3833;41.764;26.204;2023-07-28T08:01:08;2.37;;;2.07;;
7583;SDS011;3833;41.764;26.204;2023-07-28T08:03:36;2.33;;;2.00;;
7583;SDS011;3833;41.764;26.204;2023-07-28T08:06:03;2.60;;;2.40;;
7583;SDS011;3833;41.764;26.204;2023-07-28T08:08:30;5.70;;;2.90;;
7583;SDS011;3833;41.764;26.204;2023-07-28T08:10:57;2.50;;;2.30;;
7583;SDS011;3833;41.764;26.204;2023-07-28T08:13:25;2.13;;;2.00;;
7583;SDS011;3833;41.764;26.204;2023-07-28T08:15:52;2.70;;;2.40;;
7583;SDS011;3833;41.764;26.204;2023-07-28T08:18:19;3.50;;;2.57;;
7583;SDS011;3833;41.764;26.204;2023-07-28T08:20:48;2.80;;;2.60;;
7583;SDS011;3833;41.764;26.204;2023-07-28T08:23:14;4.30;;;2.50;;
7583;SDS011;3833;41.764;26.204;2023-07-28T08:25:41;2.47;;;2.27;;
7583;SDS011;3833;41.764;26.204;2023-07-28T08:28:08;4.00;;;2.90;;
7583;SDS011;3833;41.764;26.204;2023-07-28T08:30:35;3.10;;;2.80;;
7583;SDS011;3833;41.764;26.204;2023-07-28T08:33:02;4.53;;;3.07;;
7583;SDS011;3833;41.764;26.204;2023-07-28T08:35:29;3.53;;;3.00;;
7583;SDS011;3833;41.764;26.204;2023-07-28T08:37:57;4.47;;;2.73;;
7583;SDS011;3833;41.764;26.204;2023-07-28T08:40:25;3.27;;;2.97;;
7583;SDS011;3833;41.764;26.204;2023-07-28T08:42:52;3.87;;;3.00;;
7583;SDS011;3833;41.764;26.204;2023-07-28T08:45:20;5.27;;;2.80;;
7583;SDS011;3833;41.764;26.204;2023-07-28T08:47:48;3.83;;;2.80;;
7583;SDS011;3833;41.764;26.204;2023-07-28T08:50:15;2.70;;;2.50;;
7583;SDS011;3833;41.764;26.204;2023-07-28T08:52:42;4.77;;;3.27;;
7583;SDS011;3833;41.764;26.204;2023-07-28T08:55:10;4.80;;;2.70;;
7583;SDS011;3833;41.764;26.204;2023-07-28T08:57:40;2.93;;;2.70;;
7583;SDS011;3833;41.764;26.204;2023-07-28T09:00:07;3.27;;;3.07;;
7583;SDS011;3833;41.764;26.204;2023-07-28T09:02:38;4.93;;;2.60;;
7583;SDS011;3833;41.764;26.204;2023-07-28T09:05:05;3.20;;;3.00;;
7583;SDS011;3833;41.764;26.204;2023-07-28T09:07:35;3.20;;;2.87;;
7583;SDS011;3833;41.764;26.204;2023-07-28T09:10:02;4.57;;;2.97;;
7583;SDS011;3833;41.764;26.204;2023-07-28T09:12:32;3.33;;;3.13;;
7583;SDS011;3833;41.764;26.204;2023-07-28T09:14:59;4.47;;;3.60;;
7583;SDS011;3833;41.764;26.204;2023-07-28T09:17:26;4.27;;;3.83;;
7583;SDS011;3833;41.764;26.204;2023-07-28T09:19:54;4.70;;;3.80;;
7583;SDS011;3833;41.764;26.204;2023-07-28T09:22:21;5.20;;;4.70;;
7583;SDS011;3833;41.764;26.204;2023-07-28T09:24:49;4.63;;;4.23;;
7583;SDS011;3833;41.764;26.204;2023-07-28T09:27:20;6.07;;;5.47;;
7583;SDS011;3833;41.764;26.204;2023-07-28T09:29:49;5.70;;;4.40;;
7583;SDS011;3833;41.764;26.204;2023-07-28T09:32:18;4.00;;;3.60;;
7583;SDS011;3833;41.764;26.204;2023-07-28T09:35:04;5.10;;;3.30;;
7583;SDS011;3833;41.764;26.204;2023-07-28T09:37:34;6.27;;;3.33;;
7583;SDS011;3833;41.764;26.204;2023-07-28T09:40:03;4.47;;;3.77;;
7583;SDS011;3833;41.764;26.204;2023-07-28T09:42:32;3.83;;;3.53;;
7583;SDS011;3833;41.764;26.204;2023-07-28T09:45:00;5.77;;;3.97;;
7583;SDS011;3833;41.764;26.204;2023-07-28T09:47:27;4.00;;;3.60;;
7583;SDS011;3833;41.764;26.204;2023-07-28T09:49:55;5.77;;;4.20;;
7583;SDS011;3833;41.764;26.204;2023-07-28T09:52:24;5.07;;;3.93;;
7583;SDS011;3833;41.764;26.204;2023-07-28T09:54:51;3.80;;;3.20;;
7583;SDS011;3833;41.764;26.204;2023-07-28T09:57:20;3.20;;;2.90;;
7583;SDS011;3833;41.764;26.204;2023-07-28T09:59:47;4.43;;;4.03;;
7583;SDS011;3833;41.764;26.204;2023-07-28T10:02:16;6.83;;;3.83;;
7583;SDS011;3833;41.764;26.204;2023-07-28T10:04:43;3.90;;;3.60;;
7583;SDS011;3833;41.764;26.204;2023-07-28T10:07:10;5.33;;;4.40;;
7583;SDS011;3833;41.764;26.204;2023-07-28T10:09:37;5.27;;;4.33;;
7583;SDS011;3833;41.764;26.204;2023-07-28T10:12:05;4.43;;;4.03;;
7583;SDS011;3833;41.764;26.204;2023-07-28T10:14:34;5.13;;;4.10;;
7583;SDS011;3833;41.764;26.204;2023-07-28T10:17:03;3.77;;;3.37;;
7583;SDS011;3833;41.764;26.204;2023-07-28T10:19:35;5.23;;;3.37;;
7583;SDS011;3833;41.764;26.204;2023-07-28T10:22:04;4.77;;;3.77;;
7583;SDS011;3833;41.764;26.204;2023-07-28T10:24:52;4.80;;;4.40;;
7583;SDS011;3833;41.764;26.204;2023-07-28T10:27:29;4.97;;;3.90;;
7583;SDS011;3833;41.764;26.204;2023-07-28T10:29:56;4.80;;;3.83;;
7583;SDS011;3833;41.764;26.204;2023-07-28T10:32:27;5.33;;;4.07;;
7583;SDS011;3833;41.764;26.204;2023-07-28T10:35:03;4.73;;;4.30;;
7583;SDS011;3833;41.764;26.204;2023-07-28T10:37:33;5.20;;;4.70;;
7583;SDS011;3833;41.764;26.204;2023-07-28T10:42:59;5.77;;;5.27;;
7583;SDS011;3833;41.764;26.204;2023-07-28T10:45:26;5.17;;;4.67;;
7583;SDS011;3833;41.764;26.204;2023-07-28T10:47:54;5.10;;;4.30;;
7583;SDS011;3833;41.764;26.204;2023-07-28T10:50:26;4.67;;;4.17;;
7583;SDS011;3833;41.764;26.204;2023-07-28T10:52:54;7.70;;;5.47;;
7583;SDS011;3833;41.764;26.204;2023-07-28T10:55:25;7.63;;;5.80;;
7583;SDS011;3833;41.764;26.204;2023-07-28T10:57:53;7.17;;;5.47;;
7583;SDS011;3833;41.764;26.204;2023-07-28T11:00:23;5.27;;;4.77;;
7583;SDS011;3833;41.764;26.204;2023-07-28T11:02:51;4.97;;;4.47;;
7583;SDS011;3833;41.764;26.204;2023-07-28T11:05:19;4.63;;;3.87;;
7583;SDS011;3833;41.764;26.204;2023-07-28T11:07:49;5.60;;;4.33;;
7583;SDS011;3833;41.764;26.204;2023-07-28T11:10:21;4.60;;;3.53;;
7583;SDS011;3833;41.764;26.204;2023-07-28T11:12:49;4.17;;;3.77;;
7583;SDS011;3833;41.764;26.204;2023-07-28T11:15:17;5.40;;;3.50;;
7583;SDS011;3833;41.764;26.204;2023-07-28T11:17:46;3.80;;;3.50;;
7583;SDS011;3833;41.764;26.204;2023-07-28T11:20:14;4.57;;;3.27;;
7583;SDS011;3833;41.764;26.204;2023-07-28T11:22:42;4.30;;;3.43;;
7583;SDS011;3833;41.764;26.204;2023-07-28T11:25:11;3.73;;;3.27;;
7583;SDS011;3833;41.764;26.204;2023-07-28T11:27:39;4.70;;;3.47;;
7583;SDS011;3833;41.764;26.204;2023-07-28T11:30:06;3.23;;;2.93;;
7583;SDS011;3833;41.764;26.204;2023-07-28T11:32:35;4.10;;;2.70;;
7583;SDS011;3833;41.764;26.204;2023-07-28T11:35:03;2.73;;;2.17;;
7583;SDS011;3833;41.764;26.204;2023-07-28T11:37:31;2.93;;;2.43;;
7583;SDS011;3833;41.764;26.204;2023-07-28T11:39:59;2.90;;;2.23;;
7583;SDS011;3833;41.764;26.204;2023-07-28T11:42:27;3.43;;;3.03;;
7583;SDS011;3833;41.764;26.204;2023-07-28T11:44:56;3.07;;;2.77;;
7583;SDS011;3833;41.764;26.204;2023-07-28T11:47:24;6.13;;;3.30;;
7583;SDS011;3833;41.764;26.204;2023-07-28T11:49:50;3.03;;;2.57;;
7583;SDS011;3833;41.764;26.204;2023-07-28T11:52:18;2.83;;;2.60;;
7583;SDS011;3833;41.764;26.204;2023-07-28T11:54:46;4.23;;;2.97;;
7583;SDS011;3833;41.764;26.204;2023-07-28T11:57:13;3.60;;;3.00;;
7583;SDS011;3833;41.764;26.204;2023-07-28T11:59:41;3.40;;;2.93;;
7583;SDS011;3833;41.764;26.204;2023-07-28T12:02:09;2.80;;;2.60;;
7583;SDS011;3833;41.764;26.204;2023-07-28T12:04:37;5.60;;;3.97;;
7583;SDS011;3833;41.764;26.204;2023-07-28T12:07:05;3.60;;;3.30;;
7583;SDS011;3833;41.764;26.204;2023-07-28T12:09:33;4.27;;;3.60;;
7583;SDS011;3833;41.764;26.204;2023-07-28T12:12:16;3.93;;;3.53;;
7583;SDS011;3833;41.764;26.204;2023-07-28T12:14:46;3.83;;;3.40;;
7583;SDS011;3833;41.764;26.204;2023-07-28T12:17:13;4.87;;;2.83;;
7583;SDS011;3833;41.764;26.204;2023-07-28T12:19:40;3.10;;;2.90;;
7583;SDS011;3833;41.764;26.204;2023-07-28T12:22:08;6.03;;;3.07;;
7583;SDS011;3833;41.764;26.204;2023-07-28T12:24:37;3.07;;;2.77;;
7583;SDS011;3833;41.764;26.204;2023-07-28T12:27:04;2.00;;;1.80;;
7583;SDS011;3833;41.764;26.204;2023-07-28T12:29:31;2.63;;;2.43;;
7583;SDS011;3833;41.764;26.204;2023-07-28T12:32:00;1.90;;;1.80;;
7583;SDS011;3833;41.764;26.204;2023-07-28T12:34:27;2.00;;;1.90;;
7583;SDS011;3833;41.764;26.204;2023-07-28T12:36:54;2.03;;;1.90;;
7583;SDS011;3833;41.764;26.204;2023-07-28T12:39:21;3.00;;;2.03;;
7583;SDS011;3833;41.764;26.204;2023-07-28T12:41:48;2.93;;;2.00;;
7583;SDS011;3833;41.764;26.204;2023-07-28T12:44:19;2.10;;;1.90;;
7583;SDS011;3833;41.764;26.204;2023-07-28T12:46:46;1.97;;;1.83;;
7583;SDS011;3833;41.764;26.204;2023-07-28T12:49:14;2.53;;;1.83;;
7583;SDS011;3833;41.764;26.204;2023-07-28T12:51:45;2.20;;;2.00;;
7583;SDS011;3833;41.764;26.204;2023-07-28T12:54:11;1.80;;;1.70;;
7583;SDS011;3833;41.764;26.204;2023-07-28T12:56:38;2.03;;;1.83;;
7583;SDS011;3833;41.764;26.204;2023-07-28T12:59:05;2.00;;;1.80;;
7583;SDS011;3833;41.764;26.204;2023-07-28T13:01:33;1.73;;;1.60;;
7583;SDS011;3833;41.764;26.204;2023-07-28T13:04:00;2.30;;;2.10;;
7583;SDS011;3833;41.764;26.204;2023-07-28T13:06:28;3.07;;;1.83;;
7583;SDS011;3833;41.764;26.204;2023-07-28T13:08:55;2.03;;;1.93;;
7583;SDS011;3833;41.764;26.204;2023-07-28T13:11:22;2.63;;;2.43;;
7583;SDS011;3833;41.764;26.204;2023-07-28T13:13:49;2.10;;;1.70;;
7583;SDS011;3833;41.764;26.204;2023-07-28T13:16:15;1.90;;;1.80;;
7583;SDS011;3833;41.764;26.204;2023-07-28T13:18:43;2.13;;;2.00;;
7583;SDS011;3833;41.764;26.204;2023-07-28T13:21:10;2.07;;;1.80;;
7583;SDS011;3833;41.764;26.204;2023-07-28T13:23:38;2.20;;;2.00;;
7583;SDS011;3833;41.764;26.204;2023-07-28T13:26:05;1.90;;;1.80;;
7583;SDS011;3833;41.764;26.204;2023-07-28T13:28:32;1.87;;;1.77;;
7583;SDS011;3833;41.764;26.204;2023-07-28T13:31:00;1.60;;;1.50;;
7583;SDS011;3833;41.764;26.204;2023-07-28T13:33:27;2.03;;;1.93;;
7583;SDS011;3833;41.764;26.204;2023-07-28T13:35:54;1.83;;;1.73;;
7583;SDS011;3833;41.764;26.204;2023-07-28T13:38:21;2.20;;;2.00;;
7583;SDS011;3833;41.764;26.204;2023-07-28T13:40:49;2.00;;;1.90;;
7583;SDS011;3833;41.764;26.204;2023-07-28T13:43:16;2.30;;;2.10;;
7583;SDS011;3833;41.764;26.204;2023-07-28T13:45:43;2.00;;;1.80;;
7583;SDS011;3833;41.764;26.204;2023-07-28T13:48:09;3.50;;;2.60;;
7583;SDS011;3833;41.764;26.204;2023-07-28T13:50:36;2.23;;;1.70;;
7583;SDS011;3833;41.764;26.204;2023-07-28T13:53:03;2.30;;;2.00;;
7583;SDS011;3833;41.764;26.204;2023-07-28T13:55:30;2.40;;;2.20;;
7583;SDS011;3833;41.764;26.204;2023-07-28T13:57:58;2.43;;;2.20;;
7583;SDS011;3833;41.764;26.204;2023-07-28T14:00:25;2.70;;;2.10;;
7583;SDS011;3833;41.764;26.204;2023-07-28T14:02:52;2.00;;;1.90;;
7583;SDS011;3833;41.764;26.204;2023-07-28T14:05:19;2.43;;;2.23;;
7583;SDS011;3833;41.764;26.204;2023-07-28T14:07:48;2.50;;;2.30;;
7583;SDS011;3833;41.764;26.204;2023-07-28T14:10:15;2.70;;;1.93;;
7583;SDS011;3833;41.764;26.204;2023-07-28T14:12:41;2.93;;;2.10;;
7583;SDS011;3833;41.764;26.204;2023-07-28T14:15:10;2.40;;;2.20;;
7583;SDS011;3833;41.764;26.204;2023-07-28T14:17:37;2.17;;;2.07;;
7583;SDS011;3833;41.764;26.204;2023-07-28T14:20:04;2.83;;;2.53;;
7583;SDS011;3833;41.764;26.204;2023-07-28T14:22:32;3.00;;;2.50;;
7583;SDS011;3833;41.764;26.204;2023-07-28T14:24:59;2.63;;;2.43;;
7583;SDS011;3833;41.764;26.204;2023-07-28T14:27:26;3.13;;;2.20;;
7583;SDS011;3833;41.764;26.204;2023-07-28T14:29:53;2.77;;;2.20;;
7583;SDS011;3833;41.764;26.204;2023-07-28T14:32:21;2.10;;;2.00;;
7583;SDS011;3833;41.764;26.204;2023-07-28T14:34:48;2.33;;;2.17;;
7583;SDS011;3833;41.764;26.204;2023-07-28T14:37:14;2.30;;;2.20;;
7583;SDS011;3833;41.764;26.204;2023-07-28T14:39:41;2.40;;;2.20;;
7583;SDS011;3833;41.764;26.204;2023-07-28T14:42:08;3.20;;;2.50;;
7583;SDS011;3833;41.764;26.204;2023-07-28T14:44:35;3.20;;;2.90;;
7583;SDS011;3833;41.764;26.204;2023-07-28T14:47:02;2.63;;;2.33;;
7583;SDS011;3833;41.764;26.204;2023-07-28T14:49:31;2.77;;;2.57;;
7583;SDS011;3833;41.764;26.204;2023-07-28T14:51:58;2.40;;;2.20;;
7583;SDS011;3833;41.764;26.204;2023-07-28T14:54:27;2.53;;;2.33;;
7583;SDS011;3833;41.764;26.204;2023-07-28T14:56:53;3.20;;;2.90;;
7583;SDS011;3833;41.764;26.204;2023-07-28T14:59:20;3.10;;;2.80;;
7583;SDS011;3833;41.764;26.204;2023-07-28T15:01:47;3.17;;;2.87;;
7583;SDS011;3833;41.764;26.204;2023-07-28T15:04:14;3.17;;;2.97;;
7583;SDS011;3833;41.764;26.204;2023-07-28T15:06:42;4.47;;;2.80;;